Time;durP1;ratioP1;P1;durP2;ratioP2;P2;SDS_P1;SDS_P2;PMS_P1;PMS_P2;Temp;Humidity;BMP_temperature;BMP_pressure;BME280_temperature;BME280_humidity;BME280_pressure;Samples;Min_cycle;Max_cycle;Signal;HPM_P1;HPM_P2
2022/06/29 00:00:23;;;;;;;3.72;2.05;;;;;;;;;;5112451;28;20043;-55
2022/06/29 00:02:51;;;;;;;2.90;2.10;;;;;;;;;;5112805;28;20040;-55
2022/06/29 00:05:21;;;;;;;3.40;2.30;;;;;;;;;;5112957;28;20046;-55
2022/06/29 00:07:49;;;;;;;4.70;2.30;;;;;;;;;;5112861;28;20444;-55
2022/06/29 00:10:18;;;;;;;4.68;2.45;;;;;;;;;;5113027;28;20062;-56
2022/06/29 00:12:46;;;;;;;3.40;1.95;;;;;;;;;;5094893;28;20052;-56
2022/06/29 00:15:15;;;;;;;4.22;1.85;;;;;;;;;;5113115;28;20052;-51
2022/06/29 00:17:43;;;;;;;3.22;2.22;;;;;;;;;;5112651;28;20051;-55
2022/06/29 00:20:12;;;;;;;4.72;2.20;;;;;;;;;;5112508;28;20035;-53
2022/06/29 00:22:41;;;;;;;3.22;2.30;;;;;;;;;;5112644;28;20097;-55
2022/06/29 00:25:10;;;;;;;4.20;2.30;;;;;;;;;;5112621;28;20031;-56
2022/06/29 00:27:38;;;;;;;3.42;2.30;;;;;;;;;;5112655;28;20043;-53
2022/06/29 00:30:06;;;;;;;3.28;2.28;;;;;;;;;;5112380;28;20051;-56
2022/06/29 00:32:33;;;;;;;3.60;2.15;;;;;;;;;;5112414;28;20559;-56
2022/06/29 00:35:01;;;;;;;2.90;2.00;;;;;;;;;;5112499;28;20040;-55
2022/06/29 00:37:28;;;;;;;3.22;2.00;;;;;;;;;;5112487;28;20067;-54
2022/06/29 00:39:55;;;;;;;5.28;2.38;;;;;;;;;;5112377;28;20090;-56
2022/06/29 00:42:23;;;;;;;3.92;2.17;;;;;;;;;;5111970;28;20067;-56
2022/06/29 00:44:50;;;;;;;4.63;2.17;;;;;;;;;;5112344;28;20074;-56
2022/06/29 00:47:18;;;;;;;4.25;2.47;;;;;;;;;;5112186;28;20499;-49
2022/06/29 00:49:45;;;;;;;3.40;2.17;;;;;;;;;;5112580;28;20050;-54
2022/06/29 00:52:15;;;;;;;3.22;2.22;;;;;;;;;;5112274;28;20089;-56
2022/06/29 00:55:06;;;;;;;5.90;2.28;;;;;;;;;;5112567;28;20078;-57
2022/06/29 00:57:40;;;;;;;4.43;2.10;;;;;;;;;;5112377;28;20505;-55
2022/06/29 01:00:09;;;;;;;6.55;2.33;;;;;;;;;;5112228;28;20044;-56
2022/06/29 01:02:36;;;;;;;2.90;2.10;;;;;;;;;;5111873;28;20040;-56
2022/06/29 01:05:05;;;;;;;3.30;1.95;;;;;;;;;;5112198;28;20044;-55
2022/06/29 01:07:33;;;;;;;5.65;2.08;;;;;;;;;;5111947;28;20032;-56
2022/06/29 01:10:02;;;;;;;3.75;2.00;;;;;;;;;;5112116;28;20436;-56
2022/06/29 01:12:29;;;;;;;5.13;2.28;;;;;;;;;;5114937;28;20035;-56
2022/06/29 01:14:59;;;;;;;4.43;2.03;;;;;;;;;;5098349;28;20039;-57
2022/06/29 01:17:29;;;;;;;2.70;2.00;;;;;;;;;;5116249;28;20036;-56
2022/06/29 01:19:56;;;;;;;2.85;1.98;;;;;;;;;;5115768;28;20032;-56
2022/06/29 01:22:26;;;;;;;4.72;2.00;;;;;;;;;;5115727;28;20043;-56
2022/06/29 01:24:55;;;;;;;3.13;2.30;;;;;;;;;;5115978;28;20521;-56
2022/06/29 01:27:24;;;;;;;4.03;2.15;;;;;;;;;;5115877;28;20040;-57
2022/06/29 01:29:52;;;;;;;4.32;2.20;;;;;;;;;;5115699;28;20036;-57
2022/06/29 01:32:20;;;;;;;3.70;1.98;;;;;;;;;;5115639;28;20035;-55
2022/06/29 01:34:52;;;;;;;4.05;2.60;;;;;;;;;;5115665;28;20039;-50
2022/06/29 01:37:19;;;;;;;3.65;2.65;;;;;;;;;;5115754;28;20449;-57
2022/06/29 01:39:46;;;;;;;5.07;2.50;;;;;;;;;;5115934;28;20032;-53
2022/06/29 01:42:14;;;;;;;2.30;1.70;;;;;;;;;;5115822;28;20502;-57
2022/06/29 01:44:41;;;;;;;2.92;2.10;;;;;;;;;;5115335;28;20040;-48
2022/06/29 01:47:08;;;;;;;3.78;2.50;;;;;;;;;;5115527;28;20089;-56
2022/06/29 01:49:35;;;;;;;4.15;1.95;;;;;;;;;;5115289;28;20040;-48
2022/06/29 01:52:03;;;;;;;3.50;2.25;;;;;;;;;;5115290;28;20056;-57
2022/06/29 01:54:30;;;;;;;5.10;1.90;;;;;;;;;;5115335;28;20035;-56
2022/06/29 01:56:59;;;;;;;3.05;1.98;;;;;;;;;;5115317;28;20491;-57
2022/06/29 01:59:26;;;;;;;3.55;2.20;;;;;;;;;;5115446;28;20036;-54
2022/06/29 02:01:54;;;;;;;2.53;1.70;;;;;;;;;;5114943;28;20064;-50
2022/06/29 02:04:21;;;;;;;2.80;1.88;;;;;;;;;;5115156;28;20089;-53
2022/06/29 02:06:48;;;;;;;4.10;1.90;;;;;;;;;;5115136;28;20039;-49
2022/06/29 02:09:15;;;;;;;7.25;2.05;;;;;;;;;;5115483;28;20067;-47
2022/06/29 02:11:43;;;;;;;5.80;2.58;;;;;;;;;;5115328;28;20058;-54
2022/06/29 02:14:10;;;;;;;5.72;2.00;;;;;;;;;;5114866;28;20418;-50
2022/06/29 02:16:38;;;;;;;3.50;2.63;;;;;;;;;;5114936;28;20075;-50
2022/06/29 02:19:05;;;;;;;3.45;2.17;;;;;;;;;;5115046;28;20044;-53
2022/06/29 02:21:32;;;;;;;2.58;1.67;;;;;;;;;;5114630;28;20517;-49
2022/06/29 02:24:00;;;;;;;4.38;2.53;;;;;;;;;;5114682;28;20105;-51
2022/06/29 02:26:27;;;;;;;4.47;2.33;;;;;;;;;;5114592;28;20036;-53
2022/06/29 02:28:54;;;;;;;3.88;2.28;;;;;;;;;;5114495;28;20036;-50
2022/06/29 02:36:54;;;;;;;3.30;2.35;;;;;;;;;;5114662;28;20047;-48
2022/06/29 02:39:21;;;;;;;3.20;2.30;;;;;;;;;;5114274;28;20085;-56
2022/06/29 02:41:48;;;;;;;3.72;2.30;;;;;;;;;;5114183;28;20574;-51
2022/06/29 02:44:15;;;;;;;4.68;2.35;;;;;;;;;;5114742;28;20065;-52
2022/06/29 02:46:43;;;;;;;4.93;2.30;;;;;;;;;;5114275;28;20491;-52
2022/06/29 02:49:10;;;;;;;2.65;1.98;;;;;;;;;;5114399;28;20035;-54
2022/06/29 02:51:37;;;;;;;3.50;2.60;;;;;;;;;;5114156;28;20039;-56
2022/06/29 02:54:05;;;;;;;4.65;3.10;;;;;;;;;;5113973;28;20501;-55
2022/06/29 02:56:32;;;;;;;3.25;2.45;;;;;;;;;;5114218;28;20036;-53
2022/06/29 02:58:59;;;;;;;28.67;14.98;;;;;;;;;;5113992;28;20047;-53
2022/06/29 03:01:28;;;;;;;7.80;4.38;;;;;;;;;;5114114;28;20059;-52
2022/06/29 03:03:55;;;;;;;5.55;3.22;;;;;;;;;;5114313;28;20070;-52
2022/06/29 03:06:22;;;;;;;4.90;2.53;;;;;;;;;;5113677;28;20114;-54
2022/06/29 03:08:49;;;;;;;5.25;2.25;;;;;;;;;;5113985;28;20096;-53
2022/06/29 03:11:17;;;;;;;4.40;2.28;;;;;;;;;;5113938;28;20126;-55
2022/06/29 03:13:44;;;;;;;4.30;2.03;;;;;;;;;;5114071;28;20093;-54
2022/06/29 03:16:11;;;;;;;6.72;2.00;;;;;;;;;;5113741;28;20093;-48
2022/06/29 03:18:41;;;;;;;37.00;26.60;;;;;;;;;;5113578;28;20046;-57
2022/06/29 03:21:09;;;;;;;14.02;8.35;;;;;;;;;;5113591;28;20039;-57
2022/06/29 03:23:37;;;;;;;9.80;3.40;;;;;;;;;;5113783;28;20039;-52
2022/06/29 03:26:04;;;;;;;4.80;1.67;;;;;;;;;;5105024;28;20437;-51
2022/06/29 03:28:31;;;;;;;2.80;1.70;;;;;;;;;;5093206;28;20064;-49
2022/06/29 03:30:59;;;;;;;5.00;1.80;;;;;;;;;;5093179;28;20048;-48
2022/06/29 03:33:26;;;;;;;4.75;1.80;;;;;;;;;;5092549;28;20040;-50
2022/06/29 03:35:56;;;;;;;4.28;1.92;;;;;;;;;;5092839;28;20556;-54
2022/06/29 03:38:23;;;;;;;8.55;6.50;;;;;;;;;;5092774;28;20040;-53
2022/06/29 03:40:51;;;;;;;17.92;9.77;;;;;;;;;;5092766;28;20040;-57
2022/06/29 03:43:19;;;;;;;4.47;3.00;;;;;;;;;;5093028;28;20495;-48
2022/06/29 03:45:46;;;;;;;4.18;2.35;;;;;;;;;;5092843;28;20044;-55
2022/06/29 03:48:15;;;;;;;4.07;1.55;;;;;;;;;;5092763;28;20047;-57
2022/06/29 03:50:42;;;;;;;2.80;1.60;;;;;;;;;;5092485;28;20044;-54
2022/06/29 03:53:12;;;;;;;3.58;1.38;;;;;;;;;;5092593;28;20486;-53
2022/06/29 03:55:39;;;;;;;3.92;1.50;;;;;;;;;;5092638;28;20115;-58
2022/06/29 03:58:07;;;;;;;3.80;1.50;;;;;;;;;;5092600;28;20437;-58
2022/06/29 04:00:34;;;;;;;2.60;1.60;;;;;;;;;;5109301;28;20559;-51
2022/06/29 04:03:01;;;;;;;6.57;1.65;;;;;;;;;;5113184;28;20062;-50
2022/06/29 04:05:29;;;;;;;6.28;1.40;;;;;;;;;;5112626;28;20571;-51
2022/06/29 04:07:56;;;;;;;22.65;11.25;;;;;;;;;;5112877;28;20494;-57
2022/06/29 04:10:23;;;;;;;41.50;19.83;;;;;;;;;;5112685;28;20046;-49
2022/06/29 04:12:50;;;;;;;2.42;1.58;;;;;;;;;;5112843;28;20441;-58
2022/06/29 04:15:18;;;;;;;2.63;1.40;;;;;;;;;;5112821;28;20046;-58
2022/06/29 04:17:45;;;;;;;3.13;1.23;;;;;;;;;;5112797;28;20051;-58
2022/06/29 04:21:05;;;;;;;5.80;1.70;;;;;;;;;;5112752;28;20039;-51
2022/06/29 04:23:02;;;;;;;4.55;1.50;;;;;;;;;;5112501;28;20038;-57
2022/06/29 04:25:29;;;;;;;3.22;1.30;;;;;;;;;;5112275;28;20047;-49
2022/06/29 04:27:57;;;;;;;3.47;1.10;;;;;;;;;;5112262;28;20039;-51
2022/06/29 04:30:24;;;;;;;3.63;1.10;;;;;;;;;;5112480;28;20047;-53
2022/06/29 04:32:51;;;;;;;2.55;1.30;;;;;;;;;;5112525;28;20571;-52
2022/06/29 04:35:18;;;;;;;2.17;1.10;;;;;;;;;;5112608;28;20035;-52
2022/06/29 04:37:46;;;;;;;3.10;1.30;;;;;;;;;;5112719;28;20035;-54
2022/06/29 04:40:13;;;;;;;2.25;1.20;;;;;;;;;;5112443;28;20071;-54
2022/06/29 04:42:41;;;;;;;2.67;1.10;;;;;;;;;;5112508;28;20086;-56
2022/06/29 04:46:19;;;;;;;3.13;1.10;;;;;;;;;;5112572;28;20046;-49
2022/06/29 04:48:00;;;;;;;1.60;0.88;;;;;;;;;;5116211;28;20043;-58
2022/06/29 04:50:28;;;;;;;2.97;1.20;;;;;;;;;;5098101;28;20031;-58
2022/06/29 04:52:56;;;;;;;3.83;1.10;;;;;;;;;;5116357;28;20051;-56
2022/06/29 04:55:25;;;;;;;3.53;1.33;;;;;;;;;;5116607;28;20424;-54
2022/06/29 04:57:53;;;;;;;5.13;1.23;;;;;;;;;;5116560;28;20047;-53
2022/06/29 05:00:20;;;;;;;2.38;1.25;;;;;;;;;;5116269;28;20036;-54
2022/06/29 05:02:47;;;;;;;3.33;1.27;;;;;;;;;;5116648;28;20039;-54
2022/06/29 05:05:15;;;;;;;3.15;0.90;;;;;;;;;;5116441;28;20043;-51
2022/06/29 05:07:42;;;;;;;2.10;1.33;;;;;;;;;;5116298;28;20047;-55
2022/06/29 05:10:09;;;;;;;2.88;1.20;;;;;;;;;;5116201;28;20098;-57
2022/06/29 05:12:38;;;;;;;3.05;1.08;;;;;;;;;;5115736;28;20554;-58
2022/06/29 05:15:08;;;;;;;2.50;1.17;;;;;;;;;;5116183;28;20097;-49
2022/06/29 05:17:37;;;;;;;5.72;1.67;;;;;;;;;;5116134;28;20048;-49
2022/06/29 05:20:09;;;;;;;4.55;1.00;;;;;;;;;;5116116;28;20085;-56
2022/06/29 05:22:36;;;;;;;4.25;1.38;;;;;;;;;;5115876;28;20048;-59
2022/06/29 05:25:04;;;;;;;1.50;0.88;;;;;;;;;;5116099;28;20494;-58
2022/06/29 05:27:31;;;;;;;5.18;1.17;;;;;;;;;;5115874;28;20065;-58
2022/06/29 05:29:59;;;;;;;4.63;1.10;;;;;;;;;;5115833;28;20429;-48
2022/06/29 05:32:26;;;;;;;2.35;1.33;;;;;;;;;;5115585;28;20043;-56
2022/06/29 05:34:53;;;;;;;3.97;1.40;;;;;;;;;;5115599;28;20498;-53
2022/06/29 05:37:21;;;;;;;3.30;0.98;;;;;;;;;;5115646;28;20118;-54
2022/06/29 05:39:48;;;;;;;3.75;1.08;;;;;;;;;;5116045;28;20039;-58
2022/06/29 05:42:16;;;;;;;1.60;1.10;;;;;;;;;;5115554;28;20043;-50
2022/06/29 05:44:43;;;;;;;1.92;1.02;;;;;;;;;;5115403;28;20042;-47
2022/06/29 05:47:10;;;;;;;3.38;1.20;;;;;;;;;;5115585;28;20060;-58
2022/06/29 05:49:39;;;;;;;3.80;1.20;;;;;;;;;;5115535;28;20044;-48
2022/06/29 05:52:06;;;;;;;2.63;1.17;;;;;;;;;;5115227;28;20055;-54
2022/06/29 05:54:34;;;;;;;3.50;0.98;;;;;;;;;;5115167;28;20039;-54
2022/06/29 05:57:02;;;;;;;1.92;1.10;;;;;;;;;;5114613;28;20048;-53
2022/06/29 05:59:29;;;;;;;2.35;1.20;;;;;;;;;;5115123;28;20044;-49
2022/06/29 06:01:57;;;;;;;1.38;0.70;;;;;;;;;;5115245;28;20043;-55
2022/06/29 06:04:25;;;;;;;1.90;1.08;;;;;;;;;;5114991;28;20097;-59
2022/06/29 06:06:53;;;;;;;8.60;3.88;;;;;;;;;;5115042;28;20067;-50
2022/06/29 06:09:25;;;;;;;3.13;1.27;;;;;;;;;;5115166;28;20075;-58
2022/06/29 06:11:55;;;;;;;4.50;1.48;;;;;;;;;;5114743;28;20105;-56
2022/06/29 06:14:22;;;;;;;2.83;1.23;;;;;;;;;;5115157;28;20368;-50
2022/06/29 06:16:50;;;;;;;4.30;1.05;;;;;;;;;;5114990;28;20036;-55
2022/06/29 06:19:17;;;;;;;2.50;1.40;;;;;;;;;;5115166;28;20035;-57
2022/06/29 06:21:44;;;;;;;2.10;0.98;;;;;;;;;;5114833;28;20044;-50
2022/06/29 06:24:11;;;;;;;1.33;0.90;;;;;;;;;;5114740;28;20078;-58
2022/06/29 06:26:40;;;;;;;1.83;1.02;;;;;;;;;;5114296;28;20057;-48
2022/06/29 06:29:07;;;;;;;2.70;1.10;;;;;;;;;;5114563;28;20055;-49
2022/06/29 06:31:34;;;;;;;4.00;1.13;;;;;;;;;;5114358;28;20092;-58
2022/06/29 06:34:02;;;;;;;3.47;1.50;;;;;;;;;;5114546;28;20402;-58
2022/06/29 06:36:30;;;;;;;4.05;1.25;;;;;;;;;;5114028;28;20383;-53
2022/06/29 06:38:57;;;;;;;4.93;1.33;;;;;;;;;;5114305;28;20036;-57
2022/06/29 06:41:25;;;;;;;2.88;1.10;;;;;;;;;;5114226;28;20078;-58
2022/06/29 06:43:55;;;;;;;2.70;1.08;;;;;;;;;;5114139;28;20126;-58
2022/06/29 06:46:24;;;;;;;5.03;1.27;;;;;;;;;;5114148;28;20036;-55
2022/06/29 06:48:52;;;;;;;1.50;1.08;;;;;;;;;;5114565;28;20074;-58
2022/06/29 06:51:23;;;;;;;2.03;1.02;;;;;;;;;;5113876;28;20082;-57
2022/06/29 06:53:51;;;;;;;2.22;1.25;;;;;;;;;;5113499;28;20154;-54
2022/06/29 06:56:19;;;;;;;4.80;1.05;;;;;;;;;;5113975;28;20418;-58
2022/06/29 06:58:46;;;;;;;2.47;1.38;;;;;;;;;;5113795;28;20558;-47
2022/06/29 07:01:21;;;;;;;10.25;5.18;;;;;;;;;;5114145;28;20074;-53
2022/06/29 07:03:48;;;;;;;223.10;186.57;;;;;;;;;;5113504;28;20545;-52
2022/06/29 07:06:16;;;;;;;13.43;7.18;;;;;;;;;;5114153;28;20039;-53
2022/06/29 07:08:46;;;;;;;8.15;1.52;;;;;;;;;;5112894;28;20032;-53
2022/06/29 07:11:13;;;;;;;1.50;1.05;;;;;;;;;;5113281;28;20499;-54
2022/06/29 07:13:40;;;;;;;2.90;1.50;;;;;;;;;;5113623;28;20063;-59
2022/06/29 07:16:09;;;;;;;3.75;1.30;;;;;;;;;;5113352;28;20067;-48
2022/06/29 07:18:37;;;;;;;2.95;1.15;;;;;;;;;;5113372;28;20106;-58
2022/06/29 07:21:04;;;;;;;3.78;1.10;;;;;;;;;;5113579;28;20040;-48
2022/06/29 07:23:31;;;;;;;3.90;1.08;;;;;;;;;;5113445;28;20043;-58
2022/06/29 07:25:59;;;;;;;4.82;1.00;;;;;;;;;;5113764;28;20036;-53
2022/06/29 07:28:27;;;;;;;1.63;1.00;;;;;;;;;;5113340;28;20118;-58
2022/06/29 07:30:54;;;;;;;4.97;1.20;;;;;;;;;;5113322;28;20047;-55
2022/06/29 07:33:24;;;;;;;1.85;0.90;;;;;;;;;;5112981;28;20040;-58
2022/06/29 07:35:51;;;;;;;22.17;17.83;;;;;;;;;;5095276;28;20503;-50
2022/06/29 07:38:19;;;;;;;4.57;2.17;;;;;;;;;;5095457;28;20043;-58
2022/06/29 07:40:46;;;;;;;1.77;0.75;;;;;;;;;;5113392;28;20044;-59
2022/06/29 07:43:13;;;;;;;1.85;1.10;;;;;;;;;;5113217;28;20043;-58
2022/06/29 07:45:41;;;;;;;2.20;1.20;;;;;;;;;;5113094;28;20036;-54
2022/06/29 07:48:08;;;;;;;2.40;1.20;;;;;;;;;;5113040;28;20069;-50
2022/06/29 07:50:36;;;;;;;3.13;0.88;;;;;;;;;;5112652;28;20084;-52
2022/06/29 07:53:03;;;;;;;2.13;0.95;;;;;;;;;;5094786;28;20043;-59
2022/06/29 07:55:30;;;;;;;32.38;16.45;;;;;;;;;;5113098;28;20077;-59
2022/06/29 07:57:57;;;;;;;3.67;1.75;;;;;;;;;;5112667;28;20031;-53
2022/06/29 08:00:26;;;;;;;3.03;1.20;;;;;;;;;;5112393;28;20093;-58
2022/06/29 08:02:53;;;;;;;3.35;1.02;;;;;;;;;;5112923;28;20039;-49
2022/06/29 08:05:22;;;;;;;6.68;1.20;;;;;;;;;;5112933;28;20114;-54
2022/06/29 08:07:50;;;;;;;5.85;1.67;;;;;;;;;;5112945;28;20543;-46
2022/06/29 08:10:19;;;;;;;2.25;1.20;;;;;;;;;;5112796;28;20102;-48
2022/06/29 08:12:46;;;;;;;4.03;1.30;;;;;;;;;;5112795;28;20123;-58
2022/06/29 08:15:15;;;;;;;3.08;1.05;;;;;;;;;;5112747;28;20040;-48
2022/06/29 08:17:42;;;;;;;2.05;1.17;;;;;;;;;;5112558;28;20035;-52
2022/06/29 08:20:10;;;;;;;1.98;1.40;;;;;;;;;;5112240;28;20047;-50
2022/06/29 08:22:37;;;;;;;2.90;1.23;;;;;;;;;;5112468;28;20067;-58
2022/06/29 08:25:05;;;;;;;2.80;1.30;;;;;;;;;;5112465;28;20035;-58
2022/06/29 08:27:33;;;;;;;2.28;1.27;;;;;;;;;;5112449;28;20475;-52
2022/06/29 08:30:11;;;;;;;3.72;1.25;;;;;;;;;;5112352;28;20051;-58
2022/06/29 08:32:44;;;;;;;4.90;1.52;;;;;;;;;;5112301;28;20043;-46
2022/06/29 08:35:13;;;;;;;2.78;1.30;;;;;;;;;;5112601;28;20466;-58
2022/06/29 08:37:41;;;;;;;2.58;1.55;;;;;;;;;;5112272;28;20040;-51
2022/06/29 08:40:10;;;;;;;2.47;1.60;;;;;;;;;;5112049;28;20506;-59
2022/06/29 08:42:38;;;;;;;2.63;1.25;;;;;;;;;;5112272;28;20043;-56
2022/06/29 08:45:08;;;;;;;4.35;1.42;;;;;;;;;;5112343;28;20429;-58
2022/06/29 08:47:36;;;;;;;1.80;1.20;;;;;;;;;;5112341;28;20048;-55
2022/06/29 08:50:08;;;;;;;3.22;1.73;;;;;;;;;;5111923;28;20134;-55
2022/06/29 08:52:37;;;;;;;2.47;1.63;;;;;;;;;;5112219;28;20032;-58
2022/06/29 08:55:06;;;;;;;3.13;1.45;;;;;;;;;;5094473;28;20290;-58
2022/06/29 08:57:38;;;;;;;3.67;1.27;;;;;;;;;;5112447;28;20474;-57
2022/06/29 09:00:07;;;;;;;3.65;1.48;;;;;;;;;;5111837;28;20044;-46
2022/06/29 09:02:35;;;;;;;1.80;1.25;;;;;;;;;;5111985;28;20039;-52
2022/06/29 09:05:03;;;;;;;2.70;1.40;;;;;;;;;;5112091;28;20089;-47
2022/06/29 09:07:30;;;;;;;3.30;1.30;;;;;;;;;;5111855;28;20119;-59
2022/06/29 09:10:07;;;;;;;2.50;1.42;;;;;;;;;;5111969;28;20035;-53
2022/06/29 09:12:35;;;;;;;1.92;1.48;;;;;;;;;;5111688;28;20035;-57
2022/06/29 09:15:05;;;;;;;2.60;1.30;;;;;;;;;;5112128;28;20452;-58
2022/06/29 09:17:33;;;;;;;2.22;1.30;;;;;;;;;;5111886;28;20487;-58
2022/06/29 09:20:01;;;;;;;3.15;1.45;;;;;;;;;;5111890;28;20398;-59
2022/06/29 09:22:54;;;;;;;2.72;1.40;;;;;;;;;;5112212;28;20487;-52
2022/06/29 09:25:26;;;;;;;2.80;1.40;;;;;;;;;;5111971;28;20096;-58
2022/06/29 09:27:55;;;;;;;3.53;1.15;;;;;;;;;;5111570;28;20088;-58
2022/06/29 09:30:30;;;;;;;3.72;1.42;;;;;;;;;;5111696;28;20035;-48
2022/06/29 09:33:00;;;;;;;2.42;1.30;;;;;;;;;;5113606;28;20039;-52
2022/06/29 09:35:27;;;;;;;3.08;1.20;;;;;;;;;;5115783;28;20036;-59
2022/06/29 09:38:19;;;;;;;2.92;1.30;;;;;;;;;;5115712;28;20042;-49
2022/06/29 09:41:13;;;;;;;3.15;1.35;;;;;;;;;;5115681;28;20039;-56
2022/06/29 09:43:42;;;;;;;1.73;1.25;;;;;;;;;;5115728;28;20122;-56
2022/06/29 09:46:15;;;;;;;3.67;1.15;;;;;;;;;;5115481;28;20566;-48
2022/06/29 09:48:43;;;;;;;4.13;1.25;;;;;;;;;;5115404;28;20101;-58
2022/06/29 09:51:30;;;;;;;4.88;1.15;;;;;;;;;;5114952;28;20047;-51
2022/06/29 09:54:07;;;;;;;4.80;1.55;;;;;;;;;;5115415;28;20040;-47
2022/06/29 09:56:36;;;;;;;2.17;1.20;;;;;;;;;;5115252;28;20107;-58
2022/06/29 09:59:09;;;;;;;2.13;1.20;;;;;;;;;;5115099;28;20440;-46
2022/06/29 10:04:23;;;;;;;3.17;1.30;;;;;;;;;;5115125;28;20275;-47
2022/06/29 10:06:51;;;;;;;3.60;1.25;;;;;;;;;;5115017;28;20096;-56
2022/06/29 10:09:19;;;;;;;2.08;1.00;;;;;;;;;;5115351;28;20105;-58
2022/06/29 10:14:59;;;;;;;3.40;1.10;;;;;;;;;;5115028;28;20092;-58
2022/06/29 10:17:41;;;;;;;2.45;1.20;;;;;;;;;;5114874;28;20453;-50
2022/06/29 10:20:17;;;;;;;5.43;1.50;;;;;;;;;;5114328;28;20050;-47
2022/06/29 10:22:44;;;;;;;2.50;1.08;;;;;;;;;;5114783;28;20036;-59
2022/06/29 10:25:12;;;;;;;4.10;1.20;;;;;;;;;;5114713;28;20036;-53
2022/06/29 10:28:08;;;;;;;19.83;4.53;;;;;;;;;;5114753;28;20040;-58
2022/06/29 10:30:37;;;;;;;13.32;5.10;;;;;;;;;;5114569;28;20083;-52
2022/06/29 10:33:36;;;;;;;14.13;2.72;;;;;;;;;;5114703;28;20035;-58
2022/06/29 10:36:08;;;;;;;2.42;1.23;;;;;;;;;;5095664;28;20056;-48
2022/06/29 10:38:51;;;;;;;5.03;0.95;;;;;;;;;;5114267;28;20051;-49
2022/06/29 10:44:05;;;;;;;2.38;1.20;;;;;;;;;;5113136;28;20039;-56
2022/06/29 10:46:56;;;;;;;2.75;1.13;;;;;;;;;;5114145;28;20043;-59
2022/06/29 10:49:24;;;;;;;2.22;1.10;;;;;;;;;;5114357;28;20039;-59
2022/06/29 10:51:51;;;;;;;4.30;1.20;;;;;;;;;;5114164;28;20130;-53
2022/06/29 10:54:30;;;;;;;2.15;1.00;;;;;;;;;;5114430;28;20074;-59
2022/06/29 10:56:58;;;;;;;3.30;1.30;;;;;;;;;;5113965;28;20036;-47
2022/06/29 10:59:38;;;;;;;2.58;0.95;;;;;;;;;;5113954;28;20118;-48
2022/06/29 11:02:15;;;;;;;3.53;1.20;;;;;;;;;;5113873;28;20031;-58
2022/06/29 11:04:44;;;;;;;1.85;1.10;;;;;;;;;;5113895;28;20039;-59
2022/06/29 11:12:49;;;;;;;3.53;1.25;;;;;;;;;;5112858;28;20047;-53
2022/06/29 11:15:39;;;;;;;1.90;1.10;;;;;;;;;;5113989;28;20036;-59
2022/06/29 11:18:11;;;;;;;2.63;1.20;;;;;;;;;;5113483;28;20032;-58
2022/06/29 11:20:40;;;;;;;31.08;21.02;;;;;;;;;;5113424;28;20035;-54
2022/06/29 11:23:15;;;;;;;11.65;8.68;;;;;;;;;;5113473;28;20047;-57
2022/06/29 11:25:47;;;;;;;4.20;1.50;;;;;;;;;;5095478;28;20578;-59
2022/06/29 11:28:17;;;;;;;3.42;1.45;;;;;;;;;;5113615;28;20089;-59
2022/06/29 11:31:04;;;;;;;1.85;1.00;;;;;;;;;;5113195;28;20043;-58
2022/06/29 11:33:34;;;;;;;1.55;1.10;;;;;;;;;;5113438;28;20521;-59
2022/06/29 11:36:06;;;;;;;1.52;1.05;;;;;;;;;;5113188;28;20071;-54
2022/06/29 11:38:39;;;;;;;2.20;1.40;;;;;;;;;;5113027;28;20035;-60
2022/06/29 11:41:14;;;;;;;2.28;1.20;;;;;;;;;;5113261;28;20035;-58
2022/06/29 11:44:02;;;;;;;1.98;1.20;;;;;;;;;;5113185;28;20131;-50
2022/06/29 11:46:31;;;;;;;1.90;1.17;;;;;;;;;;5113136;28;20071;-46
2022/06/29 11:51:58;;;;;;;2.67;1.02;;;;;;;;;;5112491;28;20047;-50
2022/06/29 11:54:36;;;;;;;3.00;1.17;;;;;;;;;;5112782;28;20042;-58
2022/06/29 11:57:08;;;;;;;2.30;1.15;;;;;;;;;;5112939;28;20047;-46
2022/06/29 11:59:35;;;;;;;2.97;1.08;;;;;;;;;;5113112;28;20040;-60
2022/06/29 12:02:02;;;;;;;3.55;1.10;;;;;;;;;;5112748;28;20083;-58
2022/06/29 12:04:32;;;;;;;2.30;1.02;;;;;;;;;;5112682;28;20402;-60
2022/06/29 12:07:02;;;;;;;1.60;1.00;;;;;;;;;;5112736;28;20032;-51
2022/06/29 12:09:30;;;;;;;2.42;1.00;;;;;;;;;;5112938;28;20109;-60
2022/06/29 12:11:57;;;;;;;2.70;1.20;;;;;;;;;;5113221;28;20055;-50
2022/06/29 12:14:25;;;;;;;3.50;0.80;;;;;;;;;;5112319;28;20050;-53
2022/06/29 12:16:52;;;;;;;1.90;0.90;;;;;;;;;;5112723;28;20487;-48
2022/06/29 12:19:21;;;;;;;1.80;1.05;;;;;;;;;;5112550;28;20040;-47
2022/06/29 12:21:48;;;;;;;1.25;0.88;;;;;;;;;;5112898;28;20043;-55
2022/06/29 12:24:17;;;;;;;1.40;0.80;;;;;;;;;;5112490;28;20505;-59
2022/06/29 12:26:45;;;;;;;2.88;0.82;;;;;;;;;;5112234;28;20043;-50
2022/06/29 12:29:13;;;;;;;1.55;0.98;;;;;;;;;;5112619;28;20047;-51
2022/06/29 12:31:42;;;;;;;1.40;0.88;;;;;;;;;;5112473;28;20097;-54
2022/06/29 12:34:10;;;;;;;1.02;0.70;;;;;;;;;;5112585;28;20122;-59
2022/06/29 12:36:55;;;;;;;5.75;0.90;;;;;;;;;;5112365;28;20035;-55
2022/06/29 12:39:22;;;;;;;2.05;0.93;;;;;;;;;;5112178;28;20039;-47
2022/06/29 12:41:50;;;;;;;1.33;0.80;;;;;;;;;;5112444;28;20050;-59
2022/06/29 12:44:17;;;;;;;3.17;0.90;;;;;;;;;;5112303;28;20043;-59
2022/06/29 12:46:45;;;;;;;1.17;0.70;;;;;;;;;;5112102;28;20065;-59
2022/06/29 12:49:12;;;;;;;6.30;0.82;;;;;;;;;;5112222;28;20031;-53
2022/06/29 12:51:40;;;;;;;1.15;0.60;;;;;;;;;;5112125;28;20058;-48
2022/06/29 12:54:07;;;;;;;2.72;0.50;;;;;;;;;;5111728;28;20040;-57
2022/06/29 12:56:34;;;;;;;1.52;1.00;;;;;;;;;;5112100;28;20036;-60
2022/06/29 12:59:02;;;;;;;10.18;0.70;;;;;;;;;;5111800;28;20063;-56
2022/06/29 13:01:30;;;;;;;1.20;0.60;;;;;;;;;;5112384;28;20165;-58
2022/06/29 13:04:02;;;;;;;2.55;0.90;;;;;;;;;;5112350;28;20069;-48
2022/06/29 13:06:30;;;;;;;1.25;0.75;;;;;;;;;;5111707;28;20069;-59
2022/06/29 13:08:58;;;;;;;1.63;0.73;;;;;;;;;;5115903;28;20039;-48
2022/06/29 13:11:25;;;;;;;1.60;0.73;;;;;;;;;;5116149;28;20042;-59
2022/06/29 13:13:52;;;;;;;2.75;0.63;;;;;;;;;;5116254;28;20039;-53
2022/06/29 13:16:26;;;;;;;1.77;0.52;;;;;;;;;;5115861;28;20490;-59
2022/06/29 13:18:53;;;;;;;2.03;0.68;;;;;;;;;;5115921;28;20108;-60
2022/06/29 13:21:21;;;;;;;2.80;0.88;;;;;;;;;;5116171;28;20491;-53
2022/06/29 13:23:48;;;;;;;2.65;0.80;;;;;;;;;;5116229;28;20039;-46
2022/06/29 13:26:15;;;;;;;2.53;0.65;;;;;;;;;;5115909;28;20031;-54
2022/06/29 13:28:43;;;;;;;2.30;0.82;;;;;;;;;;5115520;28;20043;-56
2022/06/29 13:31:11;;;;;;;1.10;0.63;;;;;;;;;;5115678;28;20044;-55
2022/06/29 13:33:39;;;;;;;0.93;0.50;;;;;;;;;;5115717;28;20384;-50
2022/06/29 13:36:06;;;;;;;1.67;0.60;;;;;;;;;;5115852;28;20051;-54
2022/06/29 13:38:34;;;;;;;1.08;0.70;;;;;;;;;;5115664;28;20538;-57
2022/06/29 13:41:04;;;;;;;1.10;0.65;;;;;;;;;;5115767;28;20032;-60
2022/06/29 13:43:31;;;;;;;1.20;0.70;;;;;;;;;;5115600;28;20401;-54
2022/06/29 13:45:58;;;;;;;1.38;0.60;;;;;;;;;;5115438;28;20048;-52
2022/06/29 13:48:26;;;;;;;1.63;0.80;;;;;;;;;;5115333;28;20536;-57
2022/06/29 13:50:53;;;;;;;1.55;0.60;;;;;;;;;;5115405;28;20044;-60
2022/06/29 13:53:21;;;;;;;1.55;0.75;;;;;;;;;;5115450;28;20049;-46
2022/06/29 13:55:48;;;;;;;5.90;0.80;;;;;;;;;;5115635;28;20082;-54
2022/06/29 13:58:18;;;;;;;2.00;0.70;;;;;;;;;;5115216;28;20096;-51
2022/06/29 14:00:46;;;;;;;1.67;0.85;;;;;;;;;;5115076;28;20529;-60
2022/06/29 14:03:14;;;;;;;1.20;0.70;;;;;;;;;;5114844;28;20043;-56
2022/06/29 14:05:41;;;;;;;1.75;0.77;;;;;;;;;;5115266;28;20039;-60
2022/06/29 14:08:08;;;;;;;0.95;0.60;;;;;;;;;;5115068;28;20047;-57
2022/06/29 14:10:58;;;;;;;1.50;0.80;;;;;;;;;;5115305;28;20126;-55
2022/06/29 14:13:26;;;;;;;2.90;0.88;;;;;;;;;;5114804;28;20044;-53
2022/06/29 14:15:53;;;;;;;1.45;0.90;;;;;;;;;;5115030;28;20116;-48
2022/06/29 14:18:21;;;;;;;2.70;1.00;;;;;;;;;;5114923;28;20110;-54
2022/06/29 14:20:48;;;;;;;2.97;0.80;;;;;;;;;;5115031;28;20109;-57
2022/06/29 14:23:16;;;;;;;2.05;1.00;;;;;;;;;;5114674;28;20036;-60
2022/06/29 14:25:43;;;;;;;1.50;0.73;;;;;;;;;;5114532;28;20470;-54
2022/06/29 14:28:10;;;;;;;1.17;0.65;;;;;;;;;;5114514;28;20885;-59
2022/06/29 14:30:38;;;;;;;1.10;0.80;;;;;;;;;;5114146;28;20078;-56
2022/06/29 14:33:05;;;;;;;1.30;0.75;;;;;;;;;;5114719;28;20089;-58
2022/06/29 14:35:32;;;;;;;1.27;0.80;;;;;;;;;;5114667;28;20044;-59
2022/06/29 14:38:03;;;;;;;0.93;0.63;;;;;;;;;;5096194;28;20100;-57
2022/06/29 14:40:34;;;;;;;28.27;19.35;;;;;;;;;;5114417;28;20048;-57
2022/06/29 14:43:01;;;;;;;3.63;2.08;;;;;;;;;;5114657;28;20035;-59
2022/06/29 14:45:29;;;;;;;1.17;0.70;;;;;;;;;;5114563;28;20040;-57
2022/06/29 14:47:56;;;;;;;5.40;2.50;;;;;;;;;;5114243;28;20067;-61
2022/06/29 14:50:23;;;;;;;1.85;1.00;;;;;;;;;;5113799;28;20506;-56
2022/06/29 14:52:51;;;;;;;0.57;0.50;;;;;;;;;;5114523;28;20035;-58
2022/06/29 14:55:18;;;;;;;3.65;0.70;;;;;;;;;;5114496;28;20047;-51
2022/06/29 14:57:47;;;;;;;0.90;0.70;;;;;;;;;;5114288;28;20479;-59
2022/06/29 15:00:15;;;;;;;1.02;0.63;;;;;;;;;;5114301;28;20047;-59
2022/06/29 15:02:42;;;;;;;4.68;0.88;;;;;;;;;;5113972;28;20047;-55
2022/06/29 15:05:10;;;;;;;2.33;0.70;;;;;;;;;;5114018;28;20048;-57
2022/06/29 15:07:37;;;;;;;2.25;0.80;;;;;;;;;;5113727;28;20056;-47
2022/06/29 15:10:05;;;;;;;3.92;0.80;;;;;;;;;;5114155;28;20046;-53
2022/06/29 15:12:32;;;;;;;3.13;0.82;;;;;;;;;;5113839;28;20046;-59
2022/06/29 15:15:00;;;;;;;3.60;1.00;;;;;;;;;;5113808;28;20122;-57
2022/06/29 15:17:27;;;;;;;4.03;0.90;;;;;;;;;;5114044;28;20088;-55